sensor_id;sensor_type;location;lat;lon;timestamp;P1;durP1;ratioP1;P2;durP2;ratioP2
71265;SDS011;59030;52.052;8.550;2023-07-13T00:00:18;2.33;;;1.50;;
71265;SDS011;59030;52.052;8.550;2023-07-13T00:02:45;3.30;;;1.80;;
71265;SDS011;59030;52.052;8.550;2023-07-13T00:05:12;2.67;;;1.77;;
71265;SDS011;59030;52.052;8.550;2023-07-13T00:07:39;1.70;;;1.60;;
71265;SDS011;59030;52.052;8.550;2023-07-13T00:10:07;2.43;;;1.40;;
71265;SDS011;59030;52.052;8.550;2023-07-13T00:12:36;3.50;;;1.70;;
71265;SDS011;59030;52.052;8.550;2023-07-13T00:15:04;2.73;;;1.67;;
71265;SDS011;59030;52.052;8.550;2023-07-13T00:17:32;1.67;;;1.50;;
71265;SDS011;59030;52.052;8.550;2023-07-13T00:20:00;2.77;;;1.67;;
71265;SDS011;59030;52.052;8.550;2023-07-13T00:22:27;2.40;;;1.30;;
71265;SDS011;59030;52.052;8.550;2023-07-13T00:24:54;3.93;;;1.70;;
71265;SDS011;59030;52.052;8.550;2023-07-13T00:27:22;2.30;;;1.50;;
71265;SDS011;59030;52.052;8.550;2023-07-13T00:29:49;1.53;;;1.43;;
71265;SDS011;59030;52.052;8.550;2023-07-13T00:32:16;1.67;;;1.57;;
71265;SDS011;59030;52.052;8.550;2023-07-13T00:34:43;2.13;;;1.77;;
71265;SDS011;59030;52.052;8.550;2023-07-13T00:37:11;4.07;;;1.60;;
71265;SDS011;59030;52.052;8.550;2023-07-13T00:39:38;2.60;;;1.70;;
71265;SDS011;59030;52.052;8.550;2023-07-13T00:42:05;1.80;;;1.70;;
71265;SDS011;59030;52.052;8.550;2023-07-13T00:44:33;1.67;;;1.57;;
71265;SDS011;59030;52.052;8.550;2023-07-13T00:47:00;1.60;;;1.50;;
71265;SDS011;59030;52.052;8.550;2023-07-13T00:49:28;2.83;;;1.43;;
71265;SDS011;59030;52.052;8.550;2023-07-13T00:51:57;2.47;;;1.67;;
71265;SDS011;59030;52.052;8.550;2023-07-13T00:54:26;1.43;;;1.30;;
71265;SDS011;59030;52.052;8.550;2023-07-13T00:56:54;2.23;;;1.30;;
71265;SDS011;59030;52.052;8.550;2023-07-13T00:59:22;1.60;;;1.37;;
71265;SDS011;59030;52.052;8.550;2023-07-13T01:01:50;2.53;;;1.70;;
71265;SDS011;59030;52.052;8.550;2023-07-13T01:04:17;2.00;;;1.57;;
71265;SDS011;59030;52.052;8.550;2023-07-13T01:06:44;1.50;;;1.40;;
71265;SDS011;59030;52.052;8.550;2023-07-13T01:09:14;1.60;;;1.50;;
71265;SDS011;59030;52.052;8.550;2023-07-13T01:11:42;2.00;;;1.30;;
71265;SDS011;59030;52.052;8.550;2023-07-13T01:14:12;2.03;;;1.37;;
71265;SDS011;59030;52.052;8.550;2023-07-13T01:16:40;2.90;;;1.60;;
71265;SDS011;59030;52.052;8.550;2023-07-13T01:19:10;2.13;;;1.47;;
71265;SDS011;59030;52.052;8.550;2023-07-13T01:21:37;2.10;;;1.30;;
71265;SDS011;59030;52.052;8.550;2023-07-13T01:24:06;1.70;;;1.50;;
71265;SDS011;59030;52.052;8.550;2023-07-13T01:26:33;2.63;;;1.60;;
71265;SDS011;59030;52.052;8.550;2023-07-13T01:29:01;1.73;;;1.60;;
71265;SDS011;59030;52.052;8.550;2023-07-13T01:31:29;1.67;;;1.43;;
71265;SDS011;59030;52.052;8.550;2023-07-13T01:33:56;1.67;;;1.47;;
71265;SDS011;59030;52.052;8.550;2023-07-13T01:36:24;1.60;;;1.50;;
71265;SDS011;59030;52.052;8.550;2023-07-13T01:38:51;2.33;;;1.40;;
71265;SDS011;59030;52.052;8.550;2023-07-13T01:41:18;2.33;;;1.73;;
71265;SDS011;59030;52.052;8.550;2023-07-13T01:43:46;2.37;;;1.70;;
71265;SDS011;59030;52.052;8.550;2023-07-13T01:46:13;1.97;;;1.60;;
71265;SDS011;59030;52.052;8.550;2023-07-13T01:48:40;1.50;;;1.40;;
71265;SDS011;59030;52.052;8.550;2023-07-13T01:51:08;1.67;;;1.50;;
71265;SDS011;59030;52.052;8.550;2023-07-13T01:53:35;1.77;;;1.67;;
71265;SDS011;59030;52.052;8.550;2023-07-13T01:56:02;2.30;;;1.77;;
71265;SDS011;59030;52.052;8.550;2023-07-13T01:58:29;2.43;;;1.73;;
71265;SDS011;59030;52.052;8.550;2023-07-13T02:00:56;2.00;;;1.77;;
71265;SDS011;59030;52.052;8.550;2023-07-13T02:03:24;2.07;;;1.80;;
71265;SDS011;59030;52.052;8.550;2023-07-13T02:05:51;2.20;;;1.67;;
71265;SDS011;59030;52.052;8.550;2023-07-13T02:08:18;1.70;;;1.60;;
71265;SDS011;59030;52.052;8.550;2023-07-13T02:10:45;2.23;;;1.63;;
71265;SDS011;59030;52.052;8.550;2023-07-13T02:13:12;2.90;;;1.70;;
71265;SDS011;59030;52.052;8.550;2023-07-13T02:15:40;2.80;;;1.60;;
71265;SDS011;59030;52.052;8.550;2023-07-13T02:18:07;1.77;;;1.67;;
71265;SDS011;59030;52.052;8.550;2023-07-13T02:20:34;3.20;;;1.80;;
71265;SDS011;59030;52.052;8.550;2023-07-13T02:23:02;2.57;;;1.60;;
71265;SDS011;59030;52.052;8.550;2023-07-13T02:25:29;3.90;;;1.60;;
71265;SDS011;59030;52.052;8.550;2023-07-13T02:27:56;2.40;;;1.70;;
71265;SDS011;59030;52.052;8.550;2023-07-13T02:30:23;1.77;;;1.67;;
71265;SDS011;59030;52.052;8.550;2023-07-13T02:32:51;2.90;;;1.73;;
71265;SDS011;59030;52.052;8.550;2023-07-13T02:35:18;2.90;;;1.70;;
71265;SDS011;59030;52.052;8.550;2023-07-13T02:37:45;2.07;;;1.57;;
71265;SDS011;59030;52.052;8.550;2023-07-13T02:40:12;2.00;;;1.70;;
71265;SDS011;59030;52.052;8.550;2023-07-13T02:42:40;2.03;;;1.63;;
71265;SDS011;59030;52.052;8.550;2023-07-13T02:45:08;2.13;;;1.50;;
71265;SDS011;59030;52.052;8.550;2023-07-13T02:47:35;2.57;;;1.70;;
71265;SDS011;59030;52.052;8.550;2023-07-13T02:50:03;2.93;;;1.57;;
71265;SDS011;59030;52.052;8.550;2023-07-13T02:52:30;3.43;;;1.73;;
71265;SDS011;59030;52.052;8.550;2023-07-13T02:54:57;1.50;;;1.40;;
71265;SDS011;59030;52.052;8.550;2023-07-13T02:57:25;1.20;;;1.20;;
71265;SDS011;59030;52.052;8.550;2023-07-13T02:59:53;2.67;;;1.50;;
71265;SDS011;59030;52.052;8.550;2023-07-13T03:02:20;2.73;;;1.40;;
71265;SDS011;59030;52.052;8.550;2023-07-13T03:04:47;2.57;;;1.73;;
71265;SDS011;59030;52.052;8.550;2023-07-13T03:07:14;1.90;;;1.53;;
71265;SDS011;59030;52.052;8.550;2023-07-13T03:09:42;2.10;;;1.43;;
71265;SDS011;59030;52.052;8.550;2023-07-13T03:12:09;2.23;;;1.50;;
71265;SDS011;59030;52.052;8.550;2023-07-13T03:14:39;4.27;;;1.60;;
71265;SDS011;59030;52.052;8.550;2023-07-13T03:17:06;1.67;;;1.57;;
71265;SDS011;59030;52.052;8.550;2023-07-13T03:19:33;3.13;;;1.40;;
71265;SDS011;59030;52.052;8.550;2023-07-13T03:22:00;2.87;;;1.70;;
71265;SDS011;59030;52.052;8.550;2023-07-13T03:24:28;2.30;;;1.50;;
71265;SDS011;59030;52.052;8.550;2023-07-13T03:26:55;1.70;;;1.60;;
71265;SDS011;59030;52.052;8.550;2023-07-13T03:29:22;1.80;;;1.50;;
71265;SDS011;59030;52.052;8.550;2023-07-13T03:31:49;3.17;;;1.63;;
71265;SDS011;59030;52.052;8.550;2023-07-13T03:34:17;6.00;;;1.60;;
71265;SDS011;59030;52.052;8.550;2023-07-13T03:36:44;2.03;;;1.63;;
71265;SDS011;59030;52.052;8.550;2023-07-13T03:39:11;2.60;;;1.60;;
71265;SDS011;59030;52.052;8.550;2023-07-13T03:41:38;2.63;;;1.57;;
71265;SDS011;59030;52.052;8.550;2023-07-13T03:44:05;1.50;;;1.27;;
71265;SDS011;59030;52.052;8.550;2023-07-13T03:46:32;3.87;;;1.93;;
71265;SDS011;59030;52.052;8.550;2023-07-13T03:49:00;2.47;;;1.77;;
71265;SDS011;59030;52.052;8.550;2023-07-13T03:51:28;2.80;;;1.83;;
71265;SDS011;59030;52.052;8.550;2023-07-13T03:53:55;1.83;;;1.60;;
71265;SDS011;59030;52.052;8.550;2023-07-13T03:56:22;2.70;;;1.90;;
71265;SDS011;59030;52.052;8.550;2023-07-13T03:58:52;4.17;;;1.73;;
71265;SDS011;59030;52.052;8.550;2023-07-13T04:01:21;2.37;;;1.60;;
71265;SDS011;59030;52.052;8.550;2023-07-13T04:03:48;2.00;;;1.80;;
71265;SDS011;59030;52.052;8.550;2023-07-13T04:06:17;2.30;;;1.60;;
71265;SDS011;59030;52.052;8.550;2023-07-13T04:08:47;3.13;;;1.90;;
71265;SDS011;59030;52.052;8.550;2023-07-13T04:11:15;1.63;;;1.53;;
71265;SDS011;59030;52.052;8.550;2023-07-13T04:13:43;1.70;;;1.60;;
71265;SDS011;59030;52.052;8.550;2023-07-13T04:16:10;4.33;;;1.80;;
71265;SDS011;59030;52.052;8.550;2023-07-13T04:18:37;1.67;;;1.57;;
71265;SDS011;59030;52.052;8.550;2023-07-13T04:21:04;1.50;;;1.40;;
71265;SDS011;59030;52.052;8.550;2023-07-13T04:23:31;2.07;;;1.73;;
71265;SDS011;59030;52.052;8.550;2023-07-13T04:25:59;2.37;;;1.80;;
71265;SDS011;59030;52.052;8.550;2023-07-13T04:28:26;1.60;;;1.50;;
71265;SDS011;59030;52.052;8.550;2023-07-13T04:30:53;2.57;;;1.93;;
71265;SDS011;59030;52.052;8.550;2023-07-13T04:33:21;2.70;;;1.70;;
71265;SDS011;59030;52.052;8.550;2023-07-13T04:35:49;2.57;;;1.47;;
71265;SDS011;59030;52.052;8.550;2023-07-13T04:38:16;1.93;;;1.30;;
71265;SDS011;59030;52.052;8.550;2023-07-13T04:40:45;3.77;;;1.40;;
71265;SDS011;59030;52.052;8.550;2023-07-13T04:43:12;2.70;;;1.60;;
71265;SDS011;59030;52.052;8.550;2023-07-13T04:45:40;1.53;;;1.30;;
71265;SDS011;59030;52.052;8.550;2023-07-13T04:48:08;1.50;;;1.40;;
71265;SDS011;59030;52.052;8.550;2023-07-13T04:50:36;4.00;;;1.50;;
71265;SDS011;59030;52.052;8.550;2023-07-13T04:53:04;2.40;;;1.53;;
71265;SDS011;59030;52.052;8.550;2023-07-13T04:55:31;1.93;;;1.30;;
71265;SDS011;59030;52.052;8.550;2023-07-13T04:57:59;2.07;;;1.50;;
71265;SDS011;59030;52.052;8.550;2023-07-13T05:00:26;3.70;;;1.40;;
71265;SDS011;59030;52.052;8.550;2023-07-13T05:02:54;2.63;;;1.20;;
71265;SDS011;59030;52.052;8.550;2023-07-13T05:05:24;1.27;;;1.17;;
71265;SDS011;59030;52.052;8.550;2023-07-13T05:07:52;2.07;;;1.30;;
71265;SDS011;59030;52.052;8.550;2023-07-13T05:10:19;3.07;;;1.40;;
71265;SDS011;59030;52.052;8.550;2023-07-13T05:12:46;3.70;;;1.40;;
71265;SDS011;59030;52.052;8.550;2023-07-13T05:15:14;1.73;;;1.13;;
71265;SDS011;59030;52.052;8.550;2023-07-13T05:17:41;2.33;;;1.40;;
71265;SDS011;59030;52.052;8.550;2023-07-13T05:20:08;4.90;;;1.33;;
71265;SDS011;59030;52.052;8.550;2023-07-13T05:22:36;3.63;;;1.30;;
71265;SDS011;59030;52.052;8.550;2023-07-13T05:25:04;2.13;;;1.50;;
71265;SDS011;59030;52.052;8.550;2023-07-13T05:27:32;2.10;;;1.50;;
71265;SDS011;59030;52.052;8.550;2023-07-13T05:29:59;2.33;;;1.30;;
71265;SDS011;59030;52.052;8.550;2023-07-13T05:32:26;3.40;;;1.20;;
71265;SDS011;59030;52.052;8.550;2023-07-13T05:34:54;1.50;;;1.33;;
71265;SDS011;59030;52.052;8.550;2023-07-13T05:37:21;1.60;;;1.40;;
71265;SDS011;59030;52.052;8.550;2023-07-13T05:39:48;2.17;;;1.13;;
71265;SDS011;59030;52.052;8.550;2023-07-13T05:42:16;2.10;;;1.13;;
71265;SDS011;59030;52.052;8.550;2023-07-13T05:44:43;1.93;;;1.30;;
71265;SDS011;59030;52.052;8.550;2023-07-13T05:47:10;3.00;;;1.30;;
71265;SDS011;59030;52.052;8.550;2023-07-13T05:49:38;1.30;;;1.20;;
71265;SDS011;59030;52.052;8.550;2023-07-13T05:52:05;1.67;;;1.50;;
71265;SDS011;59030;52.052;8.550;2023-07-13T05:54:33;1.30;;;1.20;;
71265;SDS011;59030;52.052;8.550;2023-07-13T05:57:00;2.07;;;1.40;;
71265;SDS011;59030;52.052;8.550;2023-07-13T05:59:27;2.67;;;1.13;;
71265;SDS011;59030;52.052;8.550;2023-07-13T06:01:54;1.70;;;1.20;;
71265;SDS011;59030;52.052;8.550;2023-07-13T06:04:21;4.40;;;1.83;;
71265;SDS011;59030;52.052;8.550;2023-07-13T06:06:48;1.40;;;1.20;;
71265;SDS011;59030;52.052;8.550;2023-07-13T06:09:16;2.40;;;1.40;;
71265;SDS011;59030;52.052;8.550;2023-07-13T06:11:43;2.17;;;1.20;;
71265;SDS011;59030;52.052;8.550;2023-07-13T06:14:11;1.53;;;1.43;;
71265;SDS011;59030;52.052;8.550;2023-07-13T06:16:39;1.43;;;1.23;;
71265;SDS011;59030;52.052;8.550;2023-07-13T06:19:06;1.83;;;1.20;;
71265;SDS011;59030;52.052;8.550;2023-07-13T06:21:33;2.50;;;1.30;;
71265;SDS011;59030;52.052;8.550;2023-07-13T06:24:01;2.13;;;1.30;;
71265;SDS011;59030;52.052;8.550;2023-07-13T06:26:28;2.40;;;1.53;;
71265;SDS011;59030;52.052;8.550;2023-07-13T06:28:55;7.97;;;1.60;;
71265;SDS011;59030;52.052;8.550;2023-07-13T06:31:23;3.03;;;1.50;;
71265;SDS011;59030;52.052;8.550;2023-07-13T06:33:50;2.20;;;1.40;;
71265;SDS011;59030;52.052;8.550;2023-07-13T06:36:17;2.43;;;1.60;;
71265;SDS011;59030;52.052;8.550;2023-07-13T06:38:44;4.40;;;1.60;;
71265;SDS011;59030;52.052;8.550;2023-07-13T06:41:12;3.60;;;1.57;;
71265;SDS011;59030;52.052;8.550;2023-07-13T06:43:39;2.77;;;1.87;;
71265;SDS011;59030;52.052;8.550;2023-07-13T06:46:06;3.60;;;1.80;;
71265;SDS011;59030;52.052;8.550;2023-07-13T06:48:33;2.63;;;1.87;;
71265;SDS011;59030;52.052;8.550;2023-07-13T06:51:01;2.10;;;1.70;;
71265;SDS011;59030;52.052;8.550;2023-07-13T06:53:29;1.70;;;1.60;;
71265;SDS011;59030;52.052;8.550;2023-07-13T06:55:56;4.87;;;1.73;;
71265;SDS011;59030;52.052;8.550;2023-07-13T06:58:23;2.27;;;1.80;;
71265;SDS011;59030;52.052;8.550;2023-07-13T07:00:50;4.93;;;2.00;;
71265;SDS011;59030;52.052;8.550;2023-07-13T07:03:18;2.10;;;1.90;;
71265;SDS011;59030;52.052;8.550;2023-07-13T07:05:46;3.93;;;1.73;;
71265;SDS011;59030;52.052;8.550;2023-07-13T07:08:13;2.47;;;1.60;;
71265;SDS011;59030;52.052;8.550;2023-07-13T07:10:40;4.13;;;1.63;;
71265;SDS011;59030;52.052;8.550;2023-07-13T07:13:07;3.77;;;1.63;;
71265;SDS011;59030;52.052;8.550;2023-07-13T07:15:35;3.80;;;1.80;;
71265;SDS011;59030;52.052;8.550;2023-07-13T07:18:02;2.40;;;1.60;;
71265;SDS011;59030;52.052;8.550;2023-07-13T07:20:32;1.90;;;1.73;;
71265;SDS011;59030;52.052;8.550;2023-07-13T07:22:59;3.73;;;1.83;;
71265;SDS011;59030;52.052;8.550;2023-07-13T07:25:27;2.47;;;1.97;;
71265;SDS011;59030;52.052;8.550;2023-07-13T07:27:56;2.43;;;1.77;;
71265;SDS011;59030;52.052;8.550;2023-07-13T07:30:23;2.20;;;1.90;;
71265;SDS011;59030;52.052;8.550;2023-07-13T07:32:50;2.73;;;1.80;;
71265;SDS011;59030;52.052;8.550;2023-07-13T07:35:17;2.00;;;1.70;;
71265;SDS011;59030;52.052;8.550;2023-07-13T07:37:44;5.03;;;1.90;;
71265;SDS011;59030;52.052;8.550;2023-07-13T07:40:12;4.07;;;1.90;;
71265;SDS011;59030;52.052;8.550;2023-07-13T07:42:39;3.13;;;1.40;;
71265;SDS011;59030;52.052;8.550;2023-07-13T07:45:07;1.83;;;1.67;;
71265;SDS011;59030;52.052;8.550;2023-07-13T07:47:34;3.30;;;2.10;;
71265;SDS011;59030;52.052;8.550;2023-07-13T07:50:01;4.00;;;1.83;;
71265;SDS011;59030;52.052;8.550;2023-07-13T07:52:32;2.57;;;1.83;;
71265;SDS011;59030;52.052;8.550;2023-07-13T07:54:59;3.73;;;1.90;;
71265;SDS011;59030;52.052;8.550;2023-07-13T07:57:26;2.00;;;1.80;;
71265;SDS011;59030;52.052;8.550;2023-07-13T07:59:54;3.40;;;1.80;;
71265;SDS011;59030;52.052;8.550;2023-07-13T08:02:21;3.07;;;2.10;;
71265;SDS011;59030;52.052;8.550;2023-07-13T08:04:48;3.10;;;1.70;;
71265;SDS011;59030;52.052;8.550;2023-07-13T08:07:15;2.37;;;1.70;;
71265;SDS011;59030;52.052;8.550;2023-07-13T08:09:43;3.33;;;1.70;;
71265;SDS011;59030;52.052;8.550;2023-07-13T08:12:10;4.77;;;1.93;;
71265;SDS011;59030;52.052;8.550;2023-07-13T08:14:37;3.57;;;1.87;;
71265;SDS011;59030;52.052;8.550;2023-07-13T08:17:05;3.07;;;1.90;;
71265;SDS011;59030;52.052;8.550;2023-07-13T08:19:32;3.50;;;1.90;;
71265;SDS011;59030;52.052;8.550;2023-07-13T08:21:59;4.50;;;2.00;;
71265;SDS011;59030;52.052;8.550;2023-07-13T08:24:26;3.73;;;1.73;;
71265;SDS011;59030;52.052;8.550;2023-07-13T08:26:54;5.67;;;1.70;;
71265;SDS011;59030;52.052;8.550;2023-07-13T08:29:21;2.80;;;1.50;;
71265;SDS011;59030;52.052;8.550;2023-07-13T08:31:48;3.23;;;1.80;;
71265;SDS011;59030;52.052;8.550;2023-07-13T08:34:16;7.67;;;2.00;;
71265;SDS011;59030;52.052;8.550;2023-07-13T08:36:43;4.90;;;2.00;;
71265;SDS011;59030;52.052;8.550;2023-07-13T08:39:10;1.83;;;1.73;;
71265;SDS011;59030;52.052;8.550;2023-07-13T08:44:20;2.27;;;1.70;;
71265;SDS011;59030;52.052;8.550;2023-07-13T08:46:50;2.47;;;1.57;;
71265;SDS011;59030;52.052;8.550;2023-07-13T08:49:19;2.63;;;1.77;;
71265;SDS011;59030;52.052;8.550;2023-07-13T08:51:49;2.20;;;1.63;;
71265;SDS011;59030;52.052;8.550;2023-07-13T08:54:19;1.90;;;1.57;;
71265;SDS011;59030;52.052;8.550;2023-07-13T08:56:48;1.53;;;1.43;;
71265;SDS011;59030;52.052;8.550;2023-07-13T08:59:19;2.00;;;1.80;;
71265;SDS011;59030;52.052;8.550;2023-07-13T09:01:51;3.07;;;1.63;;
71265;SDS011;59030;52.052;8.550;2023-07-13T09:04:19;2.20;;;2.00;;
71265;SDS011;59030;52.052;8.550;2023-07-13T09:07:01;2.97;;;1.93;;
71265;SDS011;59030;52.052;8.550;2023-07-13T09:09:20;2.23;;;1.97;;
71265;SDS011;59030;52.052;8.550;2023-07-13T09:11:52;3.13;;;2.23;;
71265;SDS011;59030;52.052;8.550;2023-07-13T09:14:29;2.20;;;1.70;;
71265;SDS011;59030;52.052;8.550;2023-07-13T09:16:55;2.63;;;2.30;;
71265;SDS011;59030;52.052;8.550;2023-07-13T09:19:24;3.13;;;2.20;;
71265;SDS011;59030;52.052;8.550;2023-07-13T09:21:52;2.33;;;2.13;;
71265;SDS011;59030;52.052;8.550;2023-07-13T09:24:39;3.47;;;2.27;;
71265;SDS011;59030;52.052;8.550;2023-07-13T09:27:13;2.50;;;2.30;;
71265;SDS011;59030;52.052;8.550;2023-07-13T09:29:47;7.40;;;2.50;;
71265;SDS011;59030;52.052;8.550;2023-07-13T09:32:14;2.60;;;2.30;;
71265;SDS011;59030;52.052;8.550;2023-07-13T09:34:43;3.30;;;2.30;;
71265;SDS011;59030;52.052;8.550;2023-07-13T09:37:12;2.90;;;2.33;;
71265;SDS011;59030;52.052;8.550;2023-07-13T09:39:40;2.50;;;2.30;;
71265;SDS011;59030;52.052;8.550;2023-07-13T09:42:12;2.87;;;2.40;;
71265;SDS011;59030;52.052;8.550;2023-07-13T09:44:38;2.73;;;2.23;;
71265;SDS011;59030;52.052;8.550;2023-07-13T09:47:15;2.47;;;2.27;;
71265;SDS011;59030;52.052;8.550;2023-07-13T09:49:43;3.37;;;1.90;;
71265;SDS011;59030;52.052;8.550;2023-07-13T09:52:15;2.03;;;1.83;;
71265;SDS011;59030;52.052;8.550;2023-07-13T09:54:43;2.10;;;1.90;;
71265;SDS011;59030;52.052;8.550;2023-07-13T09:57:13;1.80;;;1.70;;
71265;SDS011;59030;52.052;8.550;2023-07-13T09:59:43;2.63;;;1.80;;
71265;SDS011;59030;52.052;8.550;2023-07-13T10:02:25;3.27;;;2.00;;
71265;SDS011;59030;52.052;8.550;2023-07-13T10:04:55;1.90;;;1.80;;
71265;SDS011;59030;52.052;8.550;2023-07-13T10:07:24;1.80;;;1.63;;
71265;SDS011;59030;52.052;8.550;2023-07-13T10:09:52;2.33;;;1.60;;
71265;SDS011;59030;52.052;8.550;2023-07-13T10:12:20;1.80;;;1.50;;
71265;SDS011;59030;52.052;8.550;2023-07-13T10:14:49;2.50;;;1.93;;
71265;SDS011;59030;52.052;8.550;2023-07-13T10:17:17;3.30;;;1.87;;
71265;SDS011;59030;52.052;8.550;2023-07-13T10:19:46;2.13;;;1.50;;
71265;SDS011;59030;52.052;8.550;2023-07-13T10:22:16;1.60;;;1.50;;
71265;SDS011;59030;52.052;8.550;2023-07-13T10:24:43;2.40;;;1.67;;
71265;SDS011;59030;52.052;8.550;2023-07-13T10:27:12;1.57;;;1.40;;
71265;SDS011;59030;52.052;8.550;2023-07-13T10:29:39;2.13;;;1.60;;
71265;SDS011;59030;52.052;8.550;2023-07-13T10:32:08;2.23;;;1.87;;
71265;SDS011;59030;52.052;8.550;2023-07-13T10:34:36;1.77;;;1.60;;
71265;SDS011;59030;52.052;8.550;2023-07-13T10:37:04;1.70;;;1.60;;
71265;SDS011;59030;52.052;8.550;2023-07-13T10:39:31;2.27;;;2.00;;
71265;SDS011;59030;52.052;8.550;2023-07-13T10:42:01;2.13;;;1.90;;
71265;SDS011;59030;52.052;8.550;2023-07-13T10:44:29;4.27;;;2.07;;
71265;SDS011;59030;52.052;8.550;2023-07-13T10:46:58;2.70;;;2.30;;
71265;SDS011;59030;52.052;8.550;2023-07-13T10:49:28;2.20;;;2.00;;
71265;SDS011;59030;52.052;8.550;2023-07-13T10:51:55;2.43;;;2.20;;
71265;SDS011;59030;52.052;8.550;2023-07-13T10:54:26;2.93;;;2.20;;
71265;SDS011;59030;52.052;8.550;2023-07-13T10:56:53;3.07;;;2.43;;
71265;SDS011;59030;52.052;8.550;2023-07-13T10:59:24;3.17;;;2.50;;
71265;SDS011;59030;52.052;8.550;2023-07-13T11:01:55;2.50;;;2.30;;
71265;SDS011;59030;52.052;8.550;2023-07-13T11:04:22;2.70;;;2.10;;
71265;SDS011;59030;52.052;8.550;2023-07-13T11:06:52;3.13;;;2.27;;
71265;SDS011;59030;52.052;8.550;2023-07-13T11:09:30;2.67;;;2.47;;
71265;SDS011;59030;52.052;8.550;2023-07-13T11:11:58;3.17;;;2.60;;
71265;SDS011;59030;52.052;8.550;2023-07-13T11:14:27;3.00;;;2.70;;
71265;SDS011;59030;52.052;8.550;2023-07-13T11:16:54;2.90;;;2.53;;
71265;SDS011;59030;52.052;8.550;2023-07-13T11:19:26;3.63;;;2.97;;
71265;SDS011;59030;52.052;8.550;2023-07-13T11:22:01;3.73;;;2.70;;
71265;SDS011;59030;52.052;8.550;2023-07-13T11:24:30;2.90;;;2.60;;
71265;SDS011;59030;52.052;8.550;2023-07-13T11:26:58;3.07;;;2.77;;
71265;SDS011;59030;52.052;8.550;2023-07-13T11:29:27;3.97;;;2.77;;
71265;SDS011;59030;52.052;8.550;2023-07-13T11:31:55;5.07;;;2.80;;
71265;SDS011;59030;52.052;8.550;2023-07-13T11:34:24;2.70;;;2.50;;
71265;SDS011;59030;52.052;8.550;2023-07-13T11:36:52;4.47;;;2.83;;
71265;SDS011;59030;52.052;8.550;2023-07-13T11:39:19;2.75;;;2.55;;
71265;SDS011;59030;52.052;8.550;2023-07-13T11:41:50;3.70;;;2.80;;
71265;SDS011;59030;52.052;8.550;2023-07-13T11:44:18;3.77;;;2.70;;
71265;SDS011;59030;52.052;8.550;2023-07-13T11:46:46;4.97;;;3.00;;
71265;SDS011;59030;52.052;8.550;2023-07-13T11:49:16;2.80;;;2.57;;
71265;SDS011;59030;52.052;8.550;2023-07-13T11:51:43;3.43;;;3.00;;
71265;SDS011;59030;52.052;8.550;2023-07-13T11:54:15;2.73;;;2.50;;
71265;SDS011;59030;52.052;8.550;2023-07-13T11:56:43;4.13;;;2.60;;
71265;SDS011;59030;52.052;8.550;2023-07-13T11:59:11;3.23;;;2.30;;
71265;SDS011;59030;52.052;8.550;2023-07-13T12:01:42;2.55;;;2.35;;
71265;SDS011;59030;52.052;8.550;2023-07-13T12:04:10;2.50;;;2.30;;
71265;SDS011;59030;52.052;8.550;2023-07-13T12:06:39;3.30;;;2.20;;
71265;SDS011;59030;52.052;8.550;2023-07-13T12:09:10;3.08;;;2.05;;
71265;SDS011;59030;52.052;8.550;2023-07-13T12:11:40;3.27;;;2.30;;
71265;SDS011;59030;52.052;8.550;2023-07-13T12:14:12;2.70;;;2.10;;
71265;SDS011;59030;52.052;8.550;2023-07-13T12:16:41;2.45;;;2.02;;
71265;SDS011;59030;52.052;8.550;2023-07-13T12:19:14;2.40;;;2.00;;
71265;SDS011;59030;52.052;8.550;2023-07-13T12:21:38;2.33;;;2.05;;
71265;SDS011;59030;52.052;8.550;2023-07-13T12:24:11;2.52;;;2.33;;
71265;SDS011;59030;52.052;8.550;2023-07-13T12:26:42;2.93;;;2.70;;
71265;SDS011;59030;52.052;8.550;2023-07-13T12:29:13;4.17;;;2.90;;
71265;SDS011;59030;52.052;8.550;2023-07-13T12:31:42;4.20;;;2.70;;
71265;SDS011;59030;52.052;8.550;2023-07-13T12:34:12;2.73;;;2.53;;
71265;SDS011;59030;52.052;8.550;2023-07-13T12:36:44;4.10;;;1.95;;
71265;SDS011;59030;52.052;8.550;2023-07-13T12:39:16;2.65;;;2.30;;
71265;SDS011;59030;52.052;8.550;2023-07-13T12:41:44;2.50;;;2.30;;
71265;SDS011;59030;52.052;8.550;2023-07-13T12:44:12;3.37;;;1.93;;
71265;SDS011;59030;52.052;8.550;2023-07-13T12:46:41;2.77;;;2.47;;
71265;SDS011;59030;52.052;8.550;2023-07-13T12:49:13;4.20;;;2.25;;
71265;SDS011;59030;52.052;8.550;2023-07-13T12:51:41;2.63;;;2.40;;
71265;SDS011;59030;52.052;8.550;2023-07-13T12:54:13;2.22;;;2.10;;
71265;SDS011;59030;52.052;8.550;2023-07-13T12:56:41;2.67;;;2.33;;
71265;SDS011;59030;52.052;8.550;2023-07-13T12:59:14;2.63;;;2.20;;
71265;SDS011;59030;52.052;8.550;2023-07-13T13:01:39;3.47;;;2.20;;
71265;SDS011;59030;52.052;8.550;2023-07-13T13:04:09;2.13;;;1.93;;
71265;SDS011;59030;52.052;8.550;2023-07-13T13:06:38;3.12;;;2.00;;
71265;SDS011;59030;52.052;8.550;2023-07-13T13:09:09;2.22;;;1.90;;
71265;SDS011;59030;52.052;8.550;2023-07-13T13:11:37;2.70;;;1.90;;
71265;SDS011;59030;52.052;8.550;2023-07-13T13:14:06;2.60;;;2.20;;
71265;SDS011;59030;52.052;8.550;2023-07-13T13:16:35;2.93;;;2.20;;
71265;SDS011;59030;52.052;8.550;2023-07-13T13:19:10;2.13;;;2.00;;
71265;SDS011;59030;52.052;8.550;2023-07-13T13:21:34;2.57;;;2.20;;
71265;SDS011;59030;52.052;8.550;2023-07-13T13:24:01;2.40;;;1.83;;
71265;SDS011;59030;52.052;8.550;2023-07-13T13:26:29;2.30;;;2.10;;
71265;SDS011;59030;52.052;8.550;2023-07-13T13:28:57;2.07;;;1.87;;
71265;SDS011;59030;52.052;8.550;2023-07-13T13:31:24;2.33;;;1.63;;
71265;SDS011;59030;52.052;8.550;2023-07-13T13:33:51;1.40;;;1.30;;
71265;SDS011;59030;52.052;8.550;2023-07-13T13:36:19;2.77;;;1.60;;
71265;SDS011;59030;52.052;8.550;2023-07-13T13:38:47;1.90;;;1.70;;
71265;SDS011;59030;52.052;8.550;2023-07-13T13:41:15;2.63;;;1.50;;
71265;SDS011;59030;52.052;8.550;2023-07-13T13:43:42;1.97;;;1.60;;
71265;SDS011;59030;52.052;8.550;2023-07-13T13:46:13;1.60;;;1.50;;
71265;SDS011;59030;52.052;8.550;2023-07-13T13:48:41;2.17;;;1.57;;
71265;SDS011;59030;52.052;8.550;2023-07-13T13:51:13;2.57;;;2.00;;
71265;SDS011;59030;52.052;8.550;2023-07-13T13:53:40;2.27;;;1.80;;
71265;SDS011;59030;52.052;8.550;2023-07-13T13:56:08;5.50;;;1.83;;
71265;SDS011;59030;52.052;8.550;2023-07-13T13:58:35;2.80;;;2.27;;
71265;SDS011;59030;52.052;8.550;2023-07-13T14:01:03;2.47;;;2.13;;
71265;SDS011;59030;52.052;8.550;2023-07-13T14:03:32;3.03;;;2.23;;
71265;SDS011;59030;52.052;8.550;2023-07-13T14:05:59;3.43;;;2.17;;
71265;SDS011;59030;52.052;8.550;2023-07-13T14:08:27;3.43;;;2.63;;
71265;SDS011;59030;52.052;8.550;2023-07-13T14:10:54;2.73;;;2.30;;
71265;SDS011;59030;52.052;8.550;2023-07-13T14:13:24;2.40;;;2.20;;
71265;SDS011;59030;52.052;8.550;2023-07-13T14:15:52;3.10;;;2.50;;
71265;SDS011;59030;52.052;8.550;2023-07-13T14:18:20;3.13;;;2.23;;
71265;SDS011;59030;52.052;8.550;2023-07-13T14:20:48;3.37;;;2.43;;
71265;SDS011;59030;52.052;8.550;2023-07-13T14:23:17;3.73;;;2.10;;
71265;SDS011;59030;52.052;8.550;2023-07-13T14:25:44;3.57;;;2.57;;
71265;SDS011;59030;52.052;8.550;2023-07-13T14:28:17;3.67;;;2.63;;
71265;SDS011;59030;52.052;8.550;2023-07-13T14:30:44;3.77;;;2.40;;
71265;SDS011;59030;52.052;8.550;2023-07-13T14:33:13;6.10;;;2.30;;
71265;SDS011;59030;52.052;8.550;2023-07-13T14:35:40;3.13;;;2.37;;
71265;SDS011;59030;52.052;8.550;2023-07-13T14:38:09;2.73;;;2.40;;
71265;SDS011;59030;52.052;8.550;2023-07-13T14:40:37;2.40;;;2.20;;
71265;SDS011;59030;52.052;8.550;2023-07-13T14:43:04;2.43;;;2.23;;
71265;SDS011;59030;52.052;8.550;2023-07-13T14:45:33;4.60;;;2.47;;
71265;SDS011;59030;52.052;8.550;2023-07-13T14:48:01;3.60;;;2.47;;
71265;SDS011;59030;52.052;8.550;2023-07-13T14:50:30;3.10;;;1.80;;
71265;SDS011;59030;52.052;8.550;2023-07-13T14:52:57;2.07;;;1.60;;
71265;SDS011;59030;52.052;8.550;2023-07-13T14:55:25;1.60;;;1.50;;